createdAt,value
2018-02-09T00:00:45.245Z,16.37
2018-02-09T00:03:13.048Z,16.70
2018-02-09T00:05:40.318Z,16.23
2018-02-09T00:08:07.263Z,16.75
2018-02-09T00:10:35.379Z,17.12
2018-02-09T00:13:01.854Z,17.05
2018-02-09T00:15:30.291Z,16.77
2018-02-09T00:17:58.308Z,15.35
2018-02-09T00:20:24.832Z,17.08
2018-02-09T00:22:52.236Z,17.02
2018-02-09T00:25:22.273Z,15.75
2018-02-09T00:27:50.037Z,15.77
2018-02-09T00:30:20.226Z,16.90
2018-02-09T00:32:46.738Z,16.73
2018-02-09T00:35:13.792Z,17.33
2018-02-09T00:37:40.467Z,15.23
2018-02-09T00:40:07.247Z,15.07
2018-02-09T00:42:34.167Z,16.85
2018-02-09T00:45:01.000Z,16.52
2018-02-09T00:47:27.533Z,15.63
2018-02-09T00:49:54.306Z,18.65
2018-02-09T00:52:22.643Z,16.15
2018-02-09T00:54:49.231Z,16.73
2018-02-09T00:57:16.137Z,16.60
2018-02-09T00:59:42.981Z,16.73
2018-02-09T01:02:09.823Z,14.23
2018-02-09T01:04:37.520Z,15.38
2018-02-09T01:07:04.586Z,16.48
2018-02-09T01:09:31.824Z,17.25
2018-02-09T01:11:58.577Z,15.95
2018-02-09T01:14:25.508Z,16.12
2018-02-09T01:16:52.048Z,16.08
2018-02-09T01:19:18.944Z,15.15
2018-02-09T01:21:46.068Z,16.45
2018-02-09T01:24:12.588Z,18.83
2018-02-09T01:26:39.352Z,14.85
2018-02-09T01:29:06.040Z,18.50
2018-02-09T01:31:33.871Z,15.45
2018-02-09T01:34:00.557Z,16.02
2018-02-09T01:36:28.820Z,15.45
2018-02-09T01:38:55.779Z,17.00
2018-02-09T01:41:22.618Z,14.82
2018-02-09T01:43:49.249Z,16.23
2018-02-09T01:46:16.603Z,16.17
2018-02-09T01:48:43.449Z,15.32
2018-02-09T01:51:09.999Z,15.25
2018-02-09T01:53:36.534Z,14.35
2018-02-09T01:56:03.465Z,15.98
2018-02-09T01:58:30.213Z,14.45
2018-02-09T02:00:57.053Z,15.40
2018-02-09T02:03:23.896Z,16.23
2018-02-09T02:05:50.727Z,16.05
2018-02-09T02:08:17.640Z,16.45
2018-02-09T02:10:45.457Z,16.20
2018-02-09T02:13:13.104Z,17.60
2018-02-09T02:15:39.645Z,16.33
2018-02-09T02:18:06.170Z,15.90
2018-02-09T02:20:33.075Z,15.35
2018-02-09T02:23:00.078Z,16.05
2018-02-09T02:25:26.490Z,16.25
2018-02-09T02:27:53.563Z,16.02
2018-02-09T02:30:22.121Z,16.90
2018-02-09T02:32:49.751Z,17.30
2018-02-09T02:35:16.131Z,18.27
2018-02-09T02:37:43.053Z,16.23
2018-02-09T02:40:10.001Z,17.17
2018-02-09T02:42:37.056Z,15.90
2018-02-09T02:45:05.550Z,17.20
2018-02-09T02:47:32.903Z,18.80
2018-02-09T02:49:59.428Z,19.33
2018-02-09T02:52:25.978Z,18.77
2018-02-09T02:54:52.892Z,18.12
2018-02-09T02:57:19.455Z,19.65
2018-02-09T02:59:46.856Z,18.45
2018-02-09T03:02:13.424Z,17.83
2018-02-09T03:04:39.883Z,18.20
2018-02-09T03:07:06.401Z,18.12
2018-02-09T03:09:33.041Z,18.67
2018-02-09T03:11:59.476Z,17.00
2018-02-09T03:14:26.918Z,15.68
2018-02-09T03:16:53.539Z,15.23
2018-02-09T03:19:20.372Z,14.70
2018-02-09T03:21:46.941Z,15.63
2018-02-09T03:24:14.598Z,17.15
2018-02-09T03:26:41.233Z,15.82
2018-02-09T03:29:08.308Z,15.93
2018-02-09T03:31:34.831Z,16.20
2018-02-09T03:34:01.477Z,15.93
2018-02-09T03:36:29.147Z,15.70
2018-02-09T03:38:56.060Z,18.33
2018-02-09T03:41:25.881Z,15.43
2018-02-09T03:43:52.721Z,14.87
2018-02-09T03:46:19.300Z,15.20
2018-02-09T03:48:46.126Z,15.27
2018-02-09T03:51:13.163Z,14.85
2018-02-09T03:53:43.775Z,14.70
2018-02-09T03:56:10.928Z,15.88
2018-02-09T03:58:37.992Z,15.27
2018-02-09T04:01:05.235Z,15.35
2018-02-09T04:03:32.097Z,14.90
2018-02-09T04:05:58.919Z,15.55
2018-02-09T04:08:25.769Z,15.85
2018-02-09T04:10:54.568Z,17.67
2018-02-09T04:13:20.973Z,13.55
2018-02-09T04:15:49.655Z,15.18
2018-02-09T04:18:16.051Z,17.77
2018-02-09T04:20:43.155Z,17.12
2018-02-09T04:23:10.928Z,15.60
2018-02-09T04:25:38.876Z,19.80
2018-02-09T04:28:06.060Z,16.40
2018-02-09T04:30:32.595Z,15.93
2018-02-09T04:32:59.093Z,14.63
2018-02-09T04:35:25.667Z,16.95
2018-02-09T04:37:52.257Z,15.00
2018-02-09T04:40:19.922Z,14.32
2018-02-09T04:42:46.451Z,16.02
2018-02-09T04:45:13.224Z,15.25
2018-02-09T04:47:40.564Z,16.10
2018-02-09T04:50:07.080Z,15.15
2018-02-09T04:52:34.150Z,16.50
2018-02-09T04:55:01.688Z,17.27
2018-02-09T04:57:28.125Z,16.77
2018-02-09T04:59:54.723Z,16.35
2018-02-09T05:02:21.504Z,15.90
2018-02-09T05:04:48.400Z,17.50
2018-02-09T05:07:14.888Z,15.95
2018-02-09T05:09:41.640Z,16.05
2018-02-09T05:12:08.639Z,17.27
2018-02-09T05:14:35.438Z,16.62
2018-02-09T05:17:02.232Z,19.33
2018-02-09T05:19:29.010Z,18.00
2018-02-09T05:21:55.731Z,15.82
2018-02-09T05:24:22.836Z,16.60
2018-02-09T05:26:50.237Z,16.65
2018-02-09T05:29:16.786Z,16.23
2018-02-09T05:31:43.711Z,16.42
2018-02-09T05:34:10.185Z,18.50
2018-02-09T05:36:36.735Z,15.63
2018-02-09T05:39:03.587Z,16.00
2018-02-09T05:41:30.059Z,15.63
2018-02-09T05:43:58.970Z,14.87
2018-02-09T05:46:25.626Z,16.62
2018-02-09T05:48:52.540Z,16.45
2018-02-09T05:51:18.972Z,16.95
2018-02-09T05:53:47.877Z,15.70
2018-02-09T05:56:14.812Z,13.38
2018-02-09T05:58:46.020Z,16.27
2018-02-09T06:01:12.502Z,16.35
2018-02-09T06:03:41.187Z,19.45
2018-02-09T06:06:07.760Z,20.40
2018-02-09T06:08:34.247Z,15.73
2018-02-09T06:11:00.645Z,14.20
2018-02-09T06:13:27.643Z,14.77
2018-02-09T06:15:54.679Z,13.30
2018-02-09T06:18:22.246Z,12.68
2018-02-09T06:20:48.804Z,13.90
2018-02-09T06:23:15.436Z,15.38
2018-02-09T06:25:42.473Z,13.25
2018-02-09T06:28:09.220Z,16.87
2018-02-09T06:30:46.097Z,13.48
2018-02-09T06:33:12.496Z,13.00
2018-02-09T06:35:39.659Z,14.00
2018-02-09T06:38:06.197Z,14.15
2018-02-09T06:40:32.798Z,13.35
2018-02-09T06:43:00.496Z,15.35
2018-02-09T06:45:29.181Z,14.57
2018-02-09T06:47:56.323Z,13.93
2018-02-09T06:50:24.707Z,13.73
2018-02-09T06:52:51.252Z,12.10
2018-02-09T06:55:17.747Z,13.43
2018-02-09T06:57:51.175Z,13.55
2018-02-09T07:00:18.292Z,12.00
2018-02-09T07:02:45.460Z,12.30
2018-02-09T07:05:14.064Z,13.18
2018-02-09T07:07:40.577Z,13.80
2018-02-09T07:10:07.148Z,12.35
2018-02-09T07:12:33.707Z,12.55
2018-02-09T07:15:00.261Z,12.02
2018-02-09T07:17:28.000Z,11.60
2018-02-09T07:19:54.458Z,14.15
2018-02-09T07:22:21.041Z,12.93
2018-02-09T07:24:49.752Z,13.05
2018-02-09T07:27:16.305Z,13.77
2018-02-09T07:29:42.762Z,13.60
2018-02-09T07:32:09.404Z,14.65
2018-02-09T07:34:37.075Z,17.20
2018-02-09T07:37:03.680Z,16.95
2018-02-09T07:39:31.440Z,16.25
2018-02-09T07:41:58.008Z,15.38
2018-02-09T07:44:25.657Z,16.62
2018-02-09T07:46:52.731Z,14.60
2018-02-09T07:49:19.429Z,16.62
2018-02-09T07:51:47.122Z,14.45
2018-02-09T07:54:13.652Z,13.60
2018-02-09T07:56:40.437Z,13.13
2018-02-09T07:59:07.421Z,13.73
2018-02-09T08:01:33.877Z,14.48
2018-02-09T08:04:00.514Z,15.60
2018-02-09T08:06:30.657Z,15.75
2018-02-09T08:08:57.211Z,15.20
2018-02-09T08:11:25.371Z,16.77
2018-02-09T08:13:51.777Z,15.23
2018-02-09T08:16:20.171Z,17.70
2018-02-09T08:18:46.691Z,16.52
2018-02-09T08:21:13.279Z,16.25
2018-02-09T08:23:40.177Z,13.62
2018-02-09T08:26:07.237Z,12.85
2018-02-09T08:28:34.108Z,12.27
2018-02-09T08:31:01.210Z,14.27
2018-02-09T08:33:31.415Z,12.20
2018-02-09T08:35:57.991Z,10.23
2018-02-09T08:38:24.900Z,12.95
2018-02-09T08:40:52.678Z,13.52
2018-02-09T08:43:20.347Z,11.63
2018-02-09T08:45:50.864Z,11.77
2018-02-09T08:48:17.738Z,12.00
2018-02-09T08:50:44.292Z,13.07
2018-02-09T08:53:11.085Z,11.63
2018-02-09T08:55:41.127Z,13.13
2018-02-09T08:58:07.592Z,11.77
2018-02-09T09:00:34.344Z,12.30
2018-02-09T09:03:00.897Z,10.83
2018-02-09T09:05:27.744Z,11.70
2018-02-09T09:07:54.352Z,11.90
2018-02-09T09:10:20.831Z,10.73
2018-02-09T09:12:47.361Z,10.80
2018-02-09T09:15:14.248Z,10.90
2018-02-09T09:17:41.029Z,11.07
2018-02-09T09:20:07.484Z,10.97
2018-02-09T09:22:34.414Z,11.10
2018-02-09T09:25:00.963Z,10.73
2018-02-09T09:27:27.848Z,11.63
2018-02-09T09:29:54.390Z,11.03
2018-02-09T09:32:21.282Z,11.33
2018-02-09T09:34:48.624Z,10.80
2018-02-09T09:37:15.454Z,11.03
2018-02-09T09:39:41.856Z,10.83
2018-02-09T09:42:08.849Z,13.13
2018-02-09T09:44:35.387Z,12.33
2018-02-09T09:47:01.912Z,10.47
2018-02-09T09:49:28.880Z,9.93
2018-02-09T09:51:55.252Z,11.43
2018-02-09T09:54:22.775Z,11.57
2018-02-09T09:56:49.308Z,11.03
2018-02-09T09:59:16.767Z,10.67
2018-02-09T10:01:43.640Z,10.53
2018-02-09T10:04:10.172Z,9.60
2018-02-09T10:06:36.612Z,11.30
2018-02-09T10:09:03.267Z,12.37
2018-02-09T10:11:31.033Z,9.20
2018-02-09T10:13:57.512Z,9.47
2018-02-09T10:16:26.207Z,10.10
2018-02-09T10:18:52.789Z,9.10
2018-02-09T10:21:22.984Z,7.80
2018-02-09T10:23:51.070Z,10.57
2018-02-09T10:26:17.472Z,9.20
2018-02-09T10:28:44.683Z,7.80
2018-02-09T10:31:11.539Z,8.57
2018-02-09T10:33:38.734Z,7.97
2018-02-09T10:36:05.183Z,8.27
2018-02-09T10:38:31.815Z,8.80
2018-02-09T10:40:58.649Z,8.37
2018-02-09T10:43:25.431Z,8.13
2018-02-09T10:45:51.976Z,7.67
2018-02-09T10:48:18.821Z,7.97
2018-02-09T10:50:45.699Z,8.10
2018-02-09T10:53:12.197Z,7.37
2018-02-09T10:55:38.714Z,8.23
2018-02-09T10:58:05.307Z,7.10
2018-02-09T11:00:38.733Z,7.50
2018-02-09T11:03:05.705Z,7.00
2018-02-09T11:05:34.396Z,7.70
2018-02-09T11:08:00.926Z,7.37
2018-02-09T11:10:32.960Z,7.87
2018-02-09T11:13:06.343Z,7.30
2018-02-09T11:15:32.827Z,7.60
2018-02-09T11:17:59.339Z,7.43
2018-02-09T11:20:26.614Z,6.87
2018-02-09T11:22:55.183Z,7.07
2018-02-09T11:25:22.023Z,6.83
2018-02-09T11:27:50.831Z,6.70
2018-02-09T11:30:18.527Z,7.73
2018-02-09T11:32:49.331Z,8.10
2018-02-09T11:35:16.212Z,7.97
2018-02-09T11:37:42.687Z,7.95
2018-02-09T11:40:11.779Z,8.93
2018-02-09T11:42:38.835Z,8.68
2018-02-09T11:45:05.738Z,9.32
2018-02-09T11:47:32.217Z,8.70
2018-02-09T11:49:58.767Z,9.23
2018-02-09T11:52:25.588Z,8.30
2018-02-09T11:54:52.226Z,7.65
2018-02-09T11:57:19.886Z,5.90
2018-02-09T11:59:46.485Z,8.00
2018-02-09T12:02:15.138Z,6.40
2018-02-09T12:04:41.967Z,7.07
2018-02-09T12:07:12.303Z,7.95
2018-02-09T12:09:39.326Z,8.40
2018-02-09T12:12:08.160Z,7.80
2018-02-09T12:14:34.919Z,7.75
2018-02-09T12:17:01.303Z,8.27
2018-02-09T12:19:27.919Z,8.75
2018-02-09T12:21:54.465Z,7.10
2018-02-09T12:24:23.151Z,8.15
2018-02-09T12:26:50.595Z,7.30
2018-02-09T12:29:19.089Z,8.40
2018-02-09T12:31:49.555Z,8.20
2018-02-09T12:34:16.067Z,9.05
2018-02-09T12:36:42.577Z,8.75
2018-02-09T12:39:11.575Z,9.27
2018-02-09T12:41:38.474Z,7.40
2018-02-09T12:44:05.260Z,7.75
2018-02-09T12:46:31.704Z,9.55
2018-02-09T12:48:58.645Z,7.68
2018-02-09T12:51:25.471Z,8.30
2018-02-09T12:53:52.016Z,7.68
2018-02-09T12:56:18.612Z,8.15
2018-02-09T12:58:46.022Z,7.82
2018-02-09T13:01:12.473Z,7.80
2018-02-09T13:03:39.387Z,7.97
2018-02-09T13:06:06.227Z,8.70
2018-02-09T13:08:32.767Z,8.88
2018-02-09T13:10:59.618Z,10.00
2018-02-09T13:13:26.447Z,9.45
2018-02-09T13:15:53.596Z,9.00
2018-02-09T13:18:32.309Z,9.65
2018-02-09T13:21:00.688Z,8.60
2018-02-09T13:23:40.244Z,8.52
2018-02-09T13:26:06.787Z,8.70
2018-02-09T13:28:45.757Z,9.52
2018-02-09T13:31:13.101Z,8.40
2018-02-09T13:33:40.487Z,8.60
2018-02-09T13:36:07.698Z,9.02
2018-02-09T13:38:36.348Z,9.63
2018-02-09T13:41:02.928Z,9.82
2018-02-09T13:43:33.745Z,10.65
2018-02-09T13:46:01.766Z,9.50
2018-02-09T13:48:28.408Z,9.50
2018-02-09T13:50:55.830Z,8.75
2018-02-09T13:53:22.668Z,9.70
2018-02-09T13:55:49.504Z,9.25
2018-02-09T13:58:16.287Z,9.93
2018-02-09T14:00:43.214Z,10.40
2018-02-09T14:03:10.996Z,12.80
2018-02-09T14:05:37.517Z,10.65
2018-02-09T14:08:05.263Z,9.73
2018-02-09T14:10:36.087Z,9.65
2018-02-09T14:13:02.888Z,10.55
2018-02-09T14:15:29.778Z,10.80
2018-02-09T14:17:56.327Z,9.45
2018-02-09T14:20:24.079Z,10.70
2018-02-09T14:22:50.866Z,10.13
2018-02-09T14:25:17.400Z,9.82
2018-02-09T14:27:47.316Z,13.10
2018-02-09T14:30:13.902Z,12.02
2018-02-09T14:32:40.699Z,13.30
2018-02-09T14:35:07.523Z,11.50
2018-02-09T14:37:34.492Z,11.48
2018-02-09T14:40:02.156Z,12.35
2018-02-09T14:42:29.054Z,11.48
2018-02-09T14:44:55.602Z,11.77
2018-02-09T14:47:22.727Z,10.05
2018-02-09T14:49:49.599Z,11.90
2018-02-09T14:52:16.046Z,11.20
2018-02-09T14:54:43.837Z,11.15
2018-02-09T14:57:10.404Z,12.93
2018-02-09T14:59:38.439Z,11.70
2018-02-09T15:02:04.958Z,9.68
2018-02-09T15:04:33.361Z,13.77
2018-02-09T15:07:00.245Z,12.02
2018-02-09T15:09:26.703Z,11.10
2018-02-09T15:11:53.294Z,11.15
2018-02-09T15:14:23.248Z,10.57
2018-02-09T15:16:49.687Z,13.25
2018-02-09T15:19:16.127Z,11.32
2018-02-09T15:21:46.493Z,12.30
2018-02-09T15:24:13.051Z,13.20
2018-02-09T15:26:39.507Z,12.85
2018-02-09T15:29:06.379Z,15.52
2018-02-09T15:31:33.263Z,15.95
2018-02-09T15:34:03.754Z,13.57
2018-02-09T15:36:30.608Z,11.82
2018-02-09T15:38:57.859Z,12.82
2018-02-09T15:41:25.560Z,10.25
2018-02-09T15:43:53.247Z,13.62
2018-02-09T15:46:20.155Z,13.10
2018-02-09T15:48:46.944Z,12.93
2018-02-09T15:51:13.807Z,12.63
2018-02-09T15:53:40.301Z,11.75
2018-02-09T15:56:10.363Z,11.88
2018-02-09T15:58:37.708Z,13.45
2018-02-09T16:01:05.148Z,16.10
2018-02-09T16:03:34.158Z,16.48
2018-02-09T16:06:00.755Z,16.10
2018-02-09T16:08:27.224Z,18.20
2018-02-09T16:10:54.061Z,16.75
2018-02-09T16:13:20.947Z,16.50
2018-02-09T16:15:50.261Z,17.45
2018-02-09T16:18:16.790Z,18.92
2018-02-09T16:20:47.325Z,18.77
2018-02-09T16:23:13.888Z,20.10
2018-02-09T16:25:41.307Z,19.17
2018-02-09T16:28:08.165Z,21.05
2018-02-09T16:30:35.064Z,17.87
2018-02-09T16:33:02.148Z,19.48
2018-02-09T16:35:28.607Z,20.73
2018-02-09T16:37:56.435Z,20.55
2018-02-09T16:40:26.904Z,18.48
2018-02-09T16:42:55.664Z,21.33
2018-02-09T16:45:23.360Z,28.00
2018-02-09T16:47:52.167Z,23.95
2018-02-09T16:50:19.195Z,23.87
2018-02-09T16:52:45.775Z,25.88
2018-02-09T16:55:12.632Z,42.38
2018-02-09T17:00:27.208Z,41.25
2018-02-09T17:02:58.370Z,47.25
2018-02-09T17:05:26.213Z,35.60
2018-02-09T17:07:53.201Z,29.05
2018-02-09T17:10:19.751Z,33.28
2018-02-09T17:12:47.251Z,35.65
2018-02-09T17:15:14.041Z,28.95
2018-02-09T17:17:41.009Z,27.27
2018-02-09T17:20:07.480Z,19.73
2018-02-09T17:22:33.955Z,22.02
2018-02-09T17:25:02.095Z,20.50
2018-02-09T17:27:29.539Z,19.75
2018-02-09T17:30:00.080Z,20.73
2018-02-09T17:32:26.613Z,18.45
2018-02-09T17:34:53.072Z,21.10
2018-02-09T17:37:19.976Z,20.45
2018-02-09T17:39:47.395Z,19.90
2018-02-09T17:42:14.335Z,23.15
2018-02-09T17:44:42.976Z,23.92
2018-02-09T17:47:09.745Z,27.45
2018-02-09T17:49:36.314Z,26.67
2018-02-09T17:52:02.842Z,26.42
2018-02-09T17:54:30.300Z,28.73
2018-02-09T17:56:56.816Z,24.05
2018-02-09T17:59:23.453Z,28.38
2018-02-09T18:01:49.862Z,25.75
2018-02-09T18:04:16.433Z,28.75
2018-02-09T18:06:48.246Z,69.55
2018-02-09T18:09:15.071Z,44.95
2018-02-09T18:11:43.147Z,33.20
2018-02-09T18:14:09.927Z,27.25
2018-02-09T18:16:36.852Z,31.95
2018-02-09T18:19:03.308Z,32.80
2018-02-09T18:21:30.156Z,35.47
2018-02-09T18:23:56.698Z,49.08
2018-02-09T18:26:25.360Z,42.17
2018-02-09T18:28:51.932Z,43.28
2018-02-09T18:31:18.780Z,50.95
2018-02-09T18:33:45.703Z,48.70
2018-02-09T18:36:12.747Z,50.88
2018-02-09T18:38:39.343Z,43.97
2018-02-09T18:41:06.175Z,41.47
2018-02-09T18:43:32.736Z,49.85
2018-02-09T18:46:00.213Z,58.63
2018-02-09T18:48:29.880Z,46.28
2018-02-09T18:51:00.313Z,53.15
2018-02-09T18:53:27.155Z,62.10
2018-02-09T18:55:53.612Z,68.07
2018-02-09T18:58:20.161Z,86.32
2018-02-09T19:00:47.007Z,112.22
2018-02-09T19:03:15.192Z,131.45
2018-02-09T19:05:43.136Z,92.97
2018-02-09T19:08:10.053Z,93.65
2018-02-09T19:10:40.278Z,89.80
2018-02-09T19:13:07.384Z,103.75
2018-02-09T19:15:33.986Z,97.30
2018-02-09T19:18:01.659Z,110.45
2018-02-09T19:20:28.566Z,81.22
2018-02-09T19:22:55.348Z,88.65
2018-02-09T19:25:22.321Z,91.07
2018-02-09T19:27:52.768Z,85.03
2018-02-09T19:30:19.561Z,79.68
2018-02-09T19:32:46.097Z,90.78
2018-02-09T19:35:14.852Z,82.25
2018-02-09T19:37:41.311Z,93.87
2018-02-09T19:40:08.765Z,91.72
2018-02-09T19:45:25.115Z,87.25
2018-02-09T19:47:51.719Z,93.93
2018-02-09T19:50:18.258Z,97.28
2018-02-09T19:52:44.864Z,98.07
2018-02-09T19:55:12.255Z,92.03
2018-02-09T19:57:39.085Z,90.20
2018-02-09T20:00:09.063Z,90.90
2018-02-09T20:02:35.840Z,83.32
2018-02-09T20:05:02.701Z,74.55
2018-02-09T20:07:29.279Z,86.93
2018-02-09T20:09:56.067Z,78.12
2018-02-09T20:12:23.264Z,84.50
2018-02-09T20:14:51.971Z,103.70
2018-02-09T20:17:18.762Z,94.87
2018-02-09T20:19:45.299Z,112.20
2018-02-09T20:22:11.820Z,111.62
2018-02-09T20:24:38.373Z,108.90
2018-02-09T20:27:05.815Z,96.57
2018-02-09T20:29:32.388Z,106.32
2018-02-09T20:32:01.821Z,96.55
2018-02-09T20:34:28.835Z,103.68
2018-02-09T20:36:55.390Z,97.32
2018-02-09T20:39:22.164Z,105.25
2018-02-09T20:41:49.009Z,93.25
2018-02-09T20:44:15.545Z,107.30
2018-02-09T20:46:42.127Z,113.80
2018-02-09T20:49:08.996Z,106.12
2018-02-09T20:51:36.079Z,96.72
2018-02-09T20:54:02.709Z,87.60
2018-02-09T20:56:30.364Z,90.45
2018-02-09T20:58:56.910Z,89.30
2018-02-09T21:01:23.807Z,91.85
2018-02-09T21:03:50.383Z,98.28
2018-02-09T21:06:16.830Z,91.82
2018-02-09T21:08:43.358Z,84.95
2018-02-09T21:11:09.885Z,81.22
2018-02-09T21:13:36.485Z,82.72
2018-02-09T21:16:03.275Z,85.22
2018-02-09T21:18:32.017Z,80.30
2018-02-09T21:20:58.928Z,77.07
2018-02-09T21:23:26.012Z,82.80
2018-02-09T21:25:53.149Z,87.12
2018-02-09T21:28:20.005Z,73.30
2018-02-09T21:30:47.722Z,73.10
2018-02-09T21:33:15.155Z,69.57
2018-02-09T21:35:41.770Z,69.53
2018-02-09T21:38:09.455Z,70.07
2018-02-09T21:40:36.083Z,65.32
2018-02-09T21:43:03.822Z,69.93
2018-02-09T21:45:31.590Z,73.65
2018-02-09T21:47:58.059Z,72.55
2018-02-09T21:50:25.257Z,92.07
2018-02-09T21:52:56.119Z,82.70
2018-02-09T21:55:22.573Z,76.57
2018-02-09T21:57:49.420Z,73.55
2018-02-09T22:00:15.941Z,71.00
2018-02-09T22:02:42.542Z,70.37
2018-02-09T22:05:09.366Z,67.05
2018-02-09T22:07:35.865Z,71.95
2018-02-09T22:10:02.507Z,73.00
2018-02-09T22:12:32.611Z,74.60
2018-02-09T22:14:59.140Z,65.80
2018-02-09T22:17:26.076Z,75.18
2018-02-09T22:19:52.528Z,77.60
2018-02-09T22:22:19.499Z,70.35
2018-02-09T22:24:46.607Z,81.05
2018-02-09T22:27:13.078Z,77.68
2018-02-09T22:29:41.152Z,81.97
2018-02-09T22:32:09.816Z,76.68
2018-02-09T22:34:37.380Z,70.87
2018-02-09T22:37:03.865Z,70.75
2018-02-09T22:39:30.346Z,70.22
2018-02-09T22:41:57.243Z,73.37
2018-02-09T22:44:23.723Z,79.55
2018-02-09T22:46:50.635Z,79.82
2018-02-09T22:49:18.335Z,73.85
2018-02-09T22:51:44.940Z,76.35
2018-02-09T22:54:11.397Z,79.57
2018-02-09T22:56:37.923Z,81.22
2018-02-09T22:59:04.471Z,84.97
2018-02-09T23:01:35.673Z,96.00
2018-02-09T23:04:03.492Z,82.62
2018-02-09T23:06:30.907Z,84.18
2018-02-09T23:08:58.656Z,85.28
2018-02-09T23:11:29.191Z,75.95
2018-02-09T23:13:56.697Z,82.37
2018-02-09T23:16:26.204Z,83.12
2018-02-09T23:18:52.736Z,87.20
2018-02-09T23:21:19.319Z,79.30
2018-02-09T23:23:45.800Z,85.28
2018-02-09T23:26:12.380Z,80.10
2018-02-09T23:28:39.224Z,75.47
2018-02-09T23:31:06.944Z,83.47
2018-02-09T23:33:35.682Z,77.30
2018-02-09T23:36:02.527Z,76.75
2018-02-09T23:38:29.281Z,80.00
2018-02-09T23:40:55.842Z,84.37
2018-02-09T23:43:22.348Z,69.93
2018-02-09T23:45:49.224Z,71.97
2018-02-09T23:48:16.065Z,63.30
2018-02-09T23:50:42.651Z,63.30
2018-02-09T23:53:09.132Z,68.35
2018-02-09T23:55:35.967Z,65.50
2018-02-09T23:58:02.592Z,67.20
